Tuguegarao, Philippines
Current Conditions -  °F | °C
As of 8:00 PM on Saturday 20 Dec 2014 (Local Time) from RPLI Reporting Station
Broken Clouds Broken Clouds  
Wind Chill: 77°   Ceiling: 29000
Heat Index: 79°   Visibility: 6mi
Dew Point: 68°   Wind: 14mph
Humidity: 74%   Direction: 40°NE
Pressure: 29.88"   Gusts: NA
Location:  17.62°N, 121.72°E
Report Text: RPLI 201200Z 04012KT 9999 FEW019 BKN290 25/20 Q1012 NOSIGRMK A2988
Loading
Personal Weather Stations






























Interactive Weather Map New forecast layout! Learn more

10-Day Weather Forecast

Advertisements
Track Severe Weather on mobile